Time;durP1;ratioP1;P1;durP2;ratioP2;P2;SDS_P1;SDS_P2;PMS_P1;PMS_P2;Temp;Humidity;BMP_temperature;BMP_pressure;BME280_temperature;BME280_humidity;BME280_pressure;Samples;Min_cycle;Max_cycle;Signal;HPM_P1;HPM_P2
2023/05/17 00:01:42;;;;;;;16.05;8.13;;;;;;;13.80;100.00;94012.13;5130433;28;20232;-81
2023/05/17 00:04:08;;;;;;;14.75;8.10;;;;;;;13.83;100.00;94021.50;5130284;28;20246;-80
2023/05/17 00:06:37;;;;;;;17.27;8.55;;;;;;;13.70;100.00;94029.06;5130223;28;20215;-80
2023/05/17 00:09:03;;;;;;;17.30;10.32;;;;;;;13.63;100.00;94028.16;5130248;28;20197;-79
2023/05/17 00:11:30;;;;;;;14.27;7.80;;;;;;;13.60;100.00;94020.72;5130199;28;20253;-81
2023/05/17 00:13:57;;;;;;;25.70;8.65;;;;;;;13.58;100.00;94023.00;5130021;28;20578;-79
2023/05/17 00:16:24;;;;;;;14.15;8.48;;;;;;;13.45;100.00;94017.72;5129880;28;20193;-80
2023/05/17 00:18:50;;;;;;;14.82;8.77;;;;;;;13.40;100.00;94019.94;5132686;27;20261;-79
2023/05/17 00:21:17;;;;;;;15.00;8.27;;;;;;;13.34;100.00;94016.75;5133590;27;20201;-81
2023/05/17 00:23:45;;;;;;;18.85;9.95;;;;;;;13.29;100.00;94013.50;5133993;27;20571;-81
2023/05/17 00:26:12;;;;;;;12.15;7.93;;;;;;;13.26;100.00;94015.00;5133543;27;20208;-81
2023/05/17 00:28:39;;;;;;;22.70;9.00;;;;;;;13.20;100.00;94024.63;5134030;27;20193;-81
2023/05/17 00:31:06;;;;;;;17.70;8.23;;;;;;;12.97;100.00;94023.75;5134036;27;20200;-82
2023/05/17 00:33:33;;;;;;;19.75;8.88;;;;;;;13.02;100.00;94021.50;5133630;27;20240;-79
2023/05/17 00:35:59;;;;;;;18.88;9.75;;;;;;;13.00;100.00;94012.91;5133267;27;20246;-81
2023/05/17 00:38:26;;;;;;;20.27;9.32;;;;;;;12.86;100.00;94022.69;5133598;27;20221;-81
2023/05/17 00:40:54;;;;;;;16.30;8.70;;;;;;;12.74;100.00;94035.28;5133607;27;20550;-81
2023/05/17 00:43:21;;;;;;;18.05;8.48;;;;;;;12.71;100.00;94033.28;5133629;27;20229;-81
2023/05/17 00:45:49;;;;;;;16.15;8.93;;;;;;;12.74;100.00;94032.56;5133291;27;20245;-81
2023/05/17 00:48:16;;;;;;;13.60;8.90;;;;;;;12.67;100.00;94027.00;5133509;27;20196;-80
2023/05/17 00:50:43;;;;;;;17.85;9.90;;;;;;;12.71;100.00;94033.28;5133533;27;20204;-81
2023/05/17 00:53:14;;;;;;;19.00;9.18;;;;;;;12.72;100.00;94028.63;5133327;27;20193;-81
2023/05/17 00:55:42;;;;;;;14.63;8.75;;;;;;;12.73;100.00;94041.84;5132947;27;20720;-80
2023/05/17 00:58:11;;;;;;;16.23;8.98;;;;;;;12.63;100.00;94039.69;5140721;27;20652;-84
2023/05/17 01:00:37;;;;;;;17.45;9.57;;;;;;;12.57;100.00;94038.41;5133239;27;20601;-82
2023/05/17 01:03:04;;;;;;;18.65;9.35;;;;;;;12.55;100.00;94037.19;5133531;27;20225;-81
2023/05/17 01:05:31;;;;;;;15.10;8.82;;;;;;;12.56;100.00;94046.91;5133252;27;20224;-82
2023/05/17 01:07:58;;;;;;;13.65;8.38;;;;;;;12.52;100.00;94041.41;5133432;27;20205;-82
2023/05/17 01:10:31;;;;;;;16.33;8.48;;;;;;;12.41;100.00;94037.66;5133012;27;20254;-81
2023/05/17 01:13:06;;;;;;;19.25;8.57;;;;;;;12.51;100.00;94039.81;5133050;27;20193;-82
2023/05/17 01:15:38;;;;;;;16.55;8.48;;;;;;;12.34;100.00;94026.63;5119928;27;20921;-82
2023/05/17 01:18:12;;;;;;;16.30;8.20;;;;;;;12.38;100.00;94025.56;5133745;27;20189;-82
2023/05/17 01:20:43;;;;;;;16.38;8.48;;;;;;;12.30;100.00;94023.06;5132955;27;20693;-82
2023/05/17 01:23:27;;;;;;;20.17;8.30;;;;;;;12.21;100.00;94036.78;5132927;27;20225;-82
2023/05/17 01:26:04;;;;;;;15.38;8.13;;;;;;;12.29;100.00;94032.34;5132943;27;20284;-80
2023/05/17 01:28:34;;;;;;;20.85;8.45;;;;;;;12.24;100.00;94032.59;5112408;28;20645;-82
2023/05/17 01:31:03;;;;;;;10.40;7.07;;;;;;;12.30;100.00;94044.78;5125994;27;20201;-82
2023/05/17 01:33:30;;;;;;;16.85;8.45;;;;;;;12.33;100.00;94044.03;5132954;27;20233;-82
2023/05/17 01:35:56;;;;;;;16.38;7.90;;;;;;;12.21;100.00;94030.56;5132727;27;20197;-82
2023/05/17 01:38:23;;;;;;;17.58;8.00;;;;;;;12.18;100.00;94025.84;5132762;27;20232;-81
2023/05/17 01:40:56;;;;;;;16.33;6.80;;;;;;;12.16;100.00;94028.94;5132923;27;20201;-82
2023/05/17 01:43:28;;;;;;;15.13;7.97;;;;;;;12.13;100.00;94021.50;5133127;27;20216;-82
2023/05/17 01:46:10;;;;;;;13.75;7.38;;;;;;;11.99;100.00;94013.00;5133009;27;20196;-83
2023/05/17 01:48:40;;;;;;;12.85;6.82;;;;;;;12.08;100.00;94032.59;5132787;27;20185;-82
2023/05/17 01:51:11;;;;;;;12.00;6.32;;;;;;;12.05;100.00;94023.22;5133146;27;20662;-82
2023/05/17 01:53:39;;;;;;;12.23;6.05;;;;;;;12.17;100.00;94018.84;5132951;27;20648;-82
2023/05/17 01:56:10;;;;;;;12.38;6.50;;;;;;;12.15;100.00;94021.13;5132440;27;20261;-82
2023/05/17 01:58:44;;;;;;;13.85;6.00;;;;;;;12.16;100.00;94017.28;5132457;27;20197;-82
2023/05/17 02:01:14;;;;;;;14.90;7.00;;;;;;;12.10;100.00;94008.59;5132866;27;20189;-81
2023/05/17 02:03:41;;;;;;;12.85;6.57;;;;;;;12.14;100.00;94014.13;5132689;27;20324;-81
2023/05/17 02:06:08;;;;;;;12.52;5.63;;;;;;;12.05;100.00;94017.78;5132660;27;20257;-80
2023/05/17 02:08:34;;;;;;;13.30;5.53;;;;;;;11.98;100.00;94017.66;5132553;27;20209;-81
2023/05/17 02:11:01;;;;;;;18.17;6.30;;;;;;;12.00;100.00;94018.09;5132110;27;20200;-81
2023/05/17 02:13:28;;;;;;;9.57;6.00;;;;;;;11.98;100.00;94023.06;5132004;27;20566;-81
2023/05/17 02:15:55;;;;;;;16.60;6.70;;;;;;;11.90;100.00;94018.59;5131454;27;20759;-82
2023/05/17 02:18:23;;;;;;;11.15;6.15;;;;;;;11.86;100.00;94020.44;5131505;27;20205;-81
2023/05/17 02:20:50;;;;;;;11.95;5.53;;;;;;;11.74;100.00;94020.50;5131625;27;20750;-82
2023/05/17 02:23:17;;;;;;;15.52;6.22;;;;;;;11.81;100.00;94012.56;5131872;27;20273;-81
2023/05/17 02:25:43;;;;;;;13.82;5.50;;;;;;;11.67;100.00;94012.19;5131838;27;20221;-81
2023/05/17 02:28:10;;;;;;;11.18;5.78;;;;;;;11.64;100.00;94010.16;5132160;27;20846;-81
2023/05/17 02:30:39;;;;;;;19.60;5.90;;;;;;;11.66;100.00;94011.38;5131389;27;20602;-81
2023/05/17 02:33:06;;;;;;;8.65;4.63;;;;;;;11.63;100.00;94019.41;5131473;27;20237;-81
2023/05/17 02:35:34;;;;;;;12.98;6.28;;;;;;;11.51;100.00;94009.44;5131456;27;20192;-81
2023/05/17 02:38:02;;;;;;;9.00;5.28;;;;;;;11.53;100.00;94020.72;5131196;27;20297;-82
2023/05/17 02:40:28;;;;;;;13.85;5.60;;;;;;;11.50;100.00;94020.63;5131500;27;20196;-81
2023/05/17 02:42:55;;;;;;;13.65;5.82;;;;;;;11.44;100.00;94025.53;5130045;27;20241;-81
2023/05/17 02:45:22;;;;;;;9.30;5.28;;;;;;;11.45;100.00;94031.75;5130671;27;20636;-82
2023/05/17 02:47:48;;;;;;;9.48;5.10;;;;;;;11.40;100.00;94030.06;5131595;27;20201;-82
2023/05/17 02:50:15;;;;;;;9.95;4.95;;;;;;;11.39;100.00;94023.06;5131020;27;20209;-82
2023/05/17 02:52:43;;;;;;;8.52;5.07;;;;;;;11.43;100.00;94034.81;5131499;27;20197;-82
2023/05/17 02:55:10;;;;;;;12.15;5.32;;;;;;;11.37;100.00;94020.72;5125803;27;20200;-82
2023/05/17 02:57:37;;;;;;;16.45;5.97;;;;;;;11.33;100.00;94046.97;5129217;27;20246;-82
2023/05/17 03:00:05;;;;;;;13.50;5.38;;;;;;;11.30;100.00;94058.47;5130887;27;20609;-82
2023/05/17 03:02:32;;;;;;;14.50;6.32;;;;;;;11.33;100.00;94049.66;5128509;27;20189;-81
2023/05/17 03:04:59;;;;;;;11.30;5.40;;;;;;;11.45;100.00;94064.31;5131241;27;20595;-82
2023/05/17 03:07:25;;;;;;;16.58;6.35;;;;;;;11.35;100.00;94063.63;5130552;28;20189;-82
2023/05/17 03:09:53;;;;;;;12.40;7.50;;;;;;;11.38;100.00;94056.75;5128339;28;20197;-82
2023/05/17 03:12:20;;;;;;;25.23;8.95;;;;;;;11.57;100.00;94061.53;5130821;28;20197;-81
2023/05/17 03:14:47;;;;;;;16.80;8.57;;;;;;;11.65;100.00;94057.84;5130956;28;20201;-81
2023/05/17 03:17:14;;;;;;;16.48;9.10;;;;;;;11.72;100.00;94066.19;5130833;28;20204;-79
2023/05/17 03:19:41;;;;;;;18.55;9.60;;;;;;;11.77;100.00;94065.94;5130603;28;20193;-83
2023/05/17 03:22:07;;;;;;;22.63;10.48;;;;;;;11.80;100.00;94070.69;5130356;28;20313;-81
2023/05/17 03:24:34;;;;;;;22.63;10.73;;;;;;;11.79;100.00;94082.66;5130721;28;20294;-81
2023/05/17 03:27:02;;;;;;;21.63;10.43;;;;;;;11.89;100.00;94079.44;5131512;28;20261;-79
2023/05/17 03:29:29;;;;;;;21.30;10.93;;;;;;;11.96;100.00;94074.19;5127815;28;20245;-80
2023/05/17 03:31:56;;;;;;;20.85;11.10;;;;;;;12.04;100.00;94072.44;5117328;28;20602;-81
2023/05/17 03:34:22;;;;;;;31.10;11.88;;;;;;;12.06;100.00;94068.25;5124520;28;20297;-81
2023/05/17 03:36:49;;;;;;;25.63;13.32;;;;;;;12.19;100.00;94065.44;5130186;28;20193;-81
2023/05/17 03:39:16;;;;;;;23.45;11.30;;;;;;;12.26;100.00;94076.47;5129944;28;20213;-80
2023/05/17 03:41:43;;;;;;;26.77;11.60;;;;;;;12.28;100.00;94055.19;5131109;28;20307;-81
2023/05/17 03:44:11;;;;;;;25.02;12.23;;;;;;;12.44;100.00;94069.53;5130458;28;20678;-81
2023/05/17 03:46:37;;;;;;;25.20;11.40;;;;;;;12.52;100.00;94068.56;5130339;28;20261;-81
2023/05/17 03:49:04;;;;;;;21.58;11.73;;;;;;;12.63;100.00;94058.72;5130669;28;20269;-80
2023/05/17 03:51:31;;;;;;;22.75;11.98;;;;;;;12.71;100.00;94065.88;5129689;28;20200;-80
2023/05/17 03:53:59;;;;;;;23.90;11.75;;;;;;;12.73;100.00;94063.59;5132582;27;20201;-81
2023/05/17 03:56:26;;;;;;;22.60;11.63;;;;;;;12.82;100.00;94066.94;5134344;27;20645;-81
2023/05/17 03:58:53;;;;;;;28.42;11.95;;;;;;;12.88;99.55;94070.13;5134465;27;20250;-80
2023/05/17 04:01:21;;;;;;;27.02;12.02;;;;;;;13.00;99.69;94074.66;5134155;27;20534;-80
2023/05/17 04:03:47;;;;;;;23.98;11.60;;;;;;;13.07;99.21;94066.66;5127251;27;20241;-80
2023/05/17 04:06:14;;;;;;;17.85;10.10;;;;;;;13.37;97.51;94064.19;5129376;27;20565;-80
2023/05/17 04:08:41;;;;;;;23.85;11.88;;;;;;;13.82;94.72;94060.75;5134134;27;20197;-81
2023/05/17 04:11:11;;;;;;;20.63;11.05;;;;;;;14.09;92.53;94067.06;5134091;27;20230;-81
2023/05/17 04:13:38;;;;;;;19.17;10.07;;;;;;;14.31;90.39;94074.47;5133934;27;20195;-79
2023/05/17 04:16:06;;;;;;;19.05;10.43;;;;;;;14.54;88.68;94077.19;5134147;27;20209;-78
2023/05/17 04:18:36;;;;;;;16.02;9.35;;;;;;;14.84;87.46;94077.25;5134664;27;20257;-80
2023/05/17 04:21:03;;;;;;;19.75;10.75;;;;;;;15.34;86.12;94062.31;5135269;27;20203;-81
2023/05/17 04:23:30;;;;;;;25.27;13.30;;;;;;;15.57;84.07;94063.03;5133423;27;20233;-80
2023/05/17 04:25:57;;;;;;;21.27;11.32;;;;;;;15.37;84.52;94064.31;5133797;27;20208;-78
2023/05/17 04:28:24;;;;;;;26.55;12.70;;;;;;;14.94;86.57;94058.31;5139869;27;20225;-79
2023/05/17 04:30:52;;;;;;;24.60;13.30;;;;;;;14.67;87.93;94064.13;5135848;27;20201;-78
2023/05/17 04:33:19;;;;;;;20.33;9.27;;;;;;;14.55;89.62;94070.59;5118027;27;20225;-77
2023/05/17 04:35:47;;;;;;;18.00;9.82;;;;;;;14.87;88.15;94057.44;5125890;27;20208;-77
2023/05/17 04:38:14;;;;;;;19.52;9.82;;;;;;;15.39;85.09;94056.56;5119180;27;20212;-76
2023/05/17 04:40:41;;;;;;;17.45;9.77;;;;;;;15.53;83.81;94051.25;5132638;27;20652;-77
2023/05/17 04:43:08;;;;;;;14.70;8.55;;;;;;;15.70;83.14;94054.59;5133259;27;20311;-78
2023/05/17 04:45:36;;;;;;;20.85;8.98;;;;;;;16.37;80.47;94049.00;5132309;27;20209;-79
2023/05/17 04:48:03;;;;;;;15.68;8.07;;;;;;;16.87;78.33;94045.47;5132261;27;20201;-78
2023/05/17 04:50:30;;;;;;;20.45;9.63;;;;;;;16.81;77.90;94049.72;5132905;27;20212;-78
2023/05/17 04:52:58;;;;;;;21.63;10.45;;;;;;;17.40;76.09;94034.00;5132750;27;20200;-76
2023/05/17 04:55:25;;;;;;;22.73;12.45;;;;;;;17.31;75.04;94041.78;5132474;27;20201;-78
2023/05/17 04:57:52;;;;;;;21.17;9.80;;;;;;;17.30;75.36;94045.69;5132794;27;20227;-76
2023/05/17 05:00:19;;;;;;;21.63;12.60;;;;;;;16.78;76.33;94045.03;5132251;27;20901;-78
2023/05/17 05:02:46;;;;;;;22.30;10.18;;;;;;;16.56;77.91;94062.41;5132728;27;20204;-78
2023/05/17 05:05:13;;;;;;;20.75;9.60;;;;;;;16.67;77.32;94063.31;5131546;27;20315;-77
2023/05/17 05:07:40;;;;;;;16.55;9.60;;;;;;;16.72;76.38;94051.22;5132695;27;20201;-78
2023/05/17 05:10:08;;;;;;;17.60;8.75;;;;;;;16.87;75.71;94072.03;5132899;27;20209;-77
2023/05/17 05:12:35;;;;;;;19.73;12.38;;;;;;;17.24;73.90;94066.38;5132382;27;20269;-78
2023/05/17 05:15:02;;;;;;;17.13;11.70;;;;;;;17.35;72.58;94072.72;5133023;27;20204;-79
2023/05/17 05:17:30;;;;;;;17.23;9.77;;;;;;;17.90;71.89;94064.34;5132728;27;20610;-78
2023/05/17 05:19:57;;;;;;;19.95;9.38;;;;;;;18.17;70.49;94059.31;5132576;27;20201;-78
2023/05/17 05:22:23;;;;;;;22.05;11.50;;;;;;;19.14;66.86;94058.91;5132585;27;20250;-77
2023/05/17 05:24:50;;;;;;;14.88;10.82;;;;;;;19.65;65.22;94058.38;5132546;27;20695;-79
2023/05/17 05:27:18;;;;;;;15.57;11.48;;;;;;;19.81;63.65;94049.69;5132008;27;20193;-78
2023/05/17 05:29:45;;;;;;;20.73;11.80;;;;;;;19.79;64.12;94058.31;5132744;27;20266;-77
2023/05/17 05:32:14;;;;;;;21.55;11.45;;;;;;;20.16;62.86;94048.69;5132415;27;20201;-78
2023/05/17 05:34:40;;;;;;;16.83;10.70;;;;;;;20.14;62.98;94056.56;5131552;27;20225;-79
2023/05/17 05:37:07;;;;;;;18.50;10.20;;;;;;;20.50;61.94;94060.66;5132189;27;20193;-78
2023/05/17 05:39:34;;;;;;;18.85;10.98;;;;;;;20.81;60.87;94055.31;5131873;27;20328;-78
2023/05/17 05:42:03;;;;;;;17.10;8.93;;;;;;;20.94;59.36;94048.09;5132091;27;20257;-78
2023/05/17 05:44:31;;;;;;;18.90;9.90;;;;;;;20.33;60.87;94058.81;5131732;27;20324;-78
2023/05/17 05:46:58;;;;;;;16.85;9.88;;;;;;;20.33;61.63;94058.81;5144165;27;20200;-78
2023/05/17 05:49:24;;;;;;;13.43;9.20;;;;;;;20.85;59.24;94061.56;5132557;27;20250;-79
2023/05/17 05:51:51;;;;;;;13.70;9.07;;;;;;;20.68;59.62;94062.50;5131839;27;20668;-79
2023/05/17 05:54:18;;;;;;;14.90;9.27;;;;;;;21.14;59.35;94062.09;5131538;27;20200;-79
2023/05/17 05:56:44;;;;;;;12.90;9.00;;;;;;;20.88;58.88;94055.25;5131777;27;20285;-78
2023/05/17 05:59:11;;;;;;;16.05;9.00;;;;;;;20.69;60.08;94064.06;5131929;27;20193;-78
2023/05/17 06:01:40;;;;;;;12.70;9.20;;;;;;;20.84;59.96;94062.75;5132074;27;20200;-78
2023/05/17 06:04:06;;;;;;;17.35;8.57;;;;;;;21.02;59.01;94066.13;5131531;27;20240;-78
2023/05/17 06:06:33;;;;;;;17.10;8.73;;;;;;;20.52;60.24;94077.53;5131076;27;20196;-77
2023/05/17 06:09:00;;;;;;;13.90;8.43;;;;;;;20.42;60.81;94078.41;5131313;27;20193;-76
2023/05/17 06:11:27;;;;;;;15.60;9.73;;;;;;;20.07;62.31;94078.63;5130744;27;20222;-77
2023/05/17 06:13:53;;;;;;;15.00;9.10;;;;;;;20.29;61.22;94082.78;5131460;27;20261;-77
2023/05/17 06:16:20;;;;;;;13.90;9.50;;;;;;;20.83;61.28;94070.22;5131269;27;20265;-79
2023/05/17 06:18:48;;;;;;;13.40;8.88;;;;;;;20.54;60.06;94090.91;5130410;27;20196;-76
2023/05/17 06:21:17;;;;;;;17.70;8.30;;;;;;;20.29;61.74;94082.78;5130406;27;20328;-78
2023/05/17 06:23:43;;;;;;;17.63;9.93;;;;;;;20.07;62.21;94082.16;5131477;27;20223;-77
2023/05/17 06:26:10;;;;;;;17.55;9.63;;;;;;;20.02;62.73;94082.56;5130950;27;20647;-78
2023/05/17 06:28:37;;;;;;;13.35;9.60;;;;;;;19.77;63.62;94093.66;5131290;27;20230;-77
2023/05/17 06:31:04;;;;;;;17.20;9.45;;;;;;;19.74;63.29;94099.97;5131805;27;20596;-76
2023/05/17 06:33:31;;;;;;;14.95;9.13;;;;;;;19.27;65.86;94097.72;5130775;27;20228;-78
2023/05/17 06:35:59;;;;;;;18.02;9.13;;;;;;;19.43;65.54;94087.06;5130558;27;20242;-77
2023/05/17 06:38:26;;;;;;;16.88;9.52;;;;;;;20.32;62.88;94079.25;5131170;27;20213;-77
2023/05/17 06:40:53;;;;;;;14.13;8.05;;;;;;;19.59;64.52;94092.94;5132051;27;20223;-78
2023/05/17 06:43:20;;;;;;;12.32;7.97;;;;;;;19.86;63.93;94083.03;5130961;27;20963;-79
2023/05/17 06:45:47;;;;;;;18.08;8.95;;;;;;;19.94;64.20;94088.50;5131507;27;20228;-78
2023/05/17 06:48:14;;;;;;;14.18;8.30;;;;;;;20.34;63.93;94087.88;5131217;27;20197;-75
2023/05/17 06:50:41;;;;;;;14.25;9.25;;;;;;;19.61;65.18;94085.09;5130560;27;20205;-77
2023/05/17 06:53:09;;;;;;;11.68;7.50;;;;;;;20.66;62.71;94075.88;5131319;27;20208;-79
2023/05/17 06:55:36;;;;;;;16.52;8.38;;;;;;;20.91;62.06;94070.94;5130620;27;20303;-78
2023/05/17 06:58:03;;;;;;;15.15;8.43;;;;;;;20.92;62.09;94078.00;5130817;27;20658;-76
2023/05/17 07:00:30;;;;;;;12.52;7.53;;;;;;;20.81;61.96;94082.84;5130371;27;20193;-79
2023/05/17 07:02:57;;;;;;;15.10;8.77;;;;;;;20.40;64.59;94086.28;5130792;27;20205;-75
2023/05/17 07:05:23;;;;;;;16.55;9.18;;;;;;;20.32;63.45;94090.25;5130710;27;20229;-77
2023/05/17 07:07:51;;;;;;;16.20;8.32;;;;;;;20.01;64.09;94104.94;5131610;28;20201;-79
2023/05/17 07:10:19;;;;;;;16.10;10.10;;;;;;;20.32;64.60;94105.97;5131274;28;20212;-78
2023/05/17 07:12:46;;;;;;;17.25;10.32;;;;;;;20.48;63.53;94104.31;5130754;28;20277;-79
2023/05/17 07:15:12;;;;;;;18.10;9.73;;;;;;;19.83;65.35;94119.53;5130594;28;20773;-77
2023/05/17 07:17:40;;;;;;;14.52;9.38;;;;;;;19.77;65.82;94107.41;5130465;28;20205;-77
2023/05/17 07:20:08;;;;;;;14.45;9.10;;;;;;;19.13;67.56;94104.78;5130433;28;20207;-77
2023/05/17 07:22:36;;;;;;;16.35;10.35;;;;;;;18.98;69.05;94118.94;5130624;28;20205;-77
2023/05/17 07:25:03;;;;;;;16.17;9.68;;;;;;;18.69;69.46;94112.69;5130382;28;20270;-78
2023/05/17 07:27:31;;;;;;;18.33;9.65;;;;;;;19.06;69.40;94126.00;5130916;27;20197;-77
2023/05/17 07:29:58;;;;;;;14.90;9.55;;;;;;;18.90;69.57;94112.66;5135082;27;20212;-78
2023/05/17 07:32:25;;;;;;;16.95;9.07;;;;;;;19.69;67.96;94114.09;5134277;27;20608;-78
2023/05/17 07:34:51;;;;;;;18.85;9.68;;;;;;;20.02;66.22;94109.25;5134255;27;20843;-80
2023/05/17 07:37:18;;;;;;;17.80;9.95;;;;;;;20.45;65.82;94109.84;5147113;27;20232;-79
2023/05/17 07:39:45;;;;;;;14.38;9.30;;;;;;;19.61;67.14;94120.81;5134735;27;20208;-79
2023/05/17 07:42:12;;;;;;;15.68;9.32;;;;;;;19.55;67.59;94132.59;5134701;27;20196;-77
2023/05/17 07:44:40;;;;;;;20.10;10.18;;;;;;;19.60;68.20;94122.00;5134373;27;20658;-79
2023/05/17 07:47:07;;;;;;;18.20;9.45;;;;;;;19.88;66.88;94119.16;5134227;27;20569;-79
2023/05/17 07:49:33;;;;;;;17.98;9.10;;;;;;;20.14;65.95;94108.81;5134260;27;20546;-77
2023/05/17 07:52:01;;;;;;;15.55;8.52;;;;;;;19.73;65.68;94125.88;5134339;27;20533;-76
2023/05/17 07:54:27;;;;;;;15.70;9.02;;;;;;;19.31;68.08;94124.00;5134193;27;20285;-76
2023/05/17 07:56:55;;;;;;;16.60;9.63;;;;;;;19.23;68.92;94132.66;5134338;27;20226;-80
2023/05/17 07:59:21;;;;;;;18.33;9.38;;;;;;;19.14;68.78;94122.84;5133924;27;20229;-74
2023/05/17 08:01:50;;;;;;;15.13;9.75;;;;;;;19.33;68.68;94115.34;5134524;27;20201;-80
2023/05/17 08:04:17;;;;;;;16.17;9.43;;;;;;;19.04;70.78;94128.34;5133835;27;20229;-79
2023/05/17 08:06:47;;;;;;;18.27;9.07;;;;;;;19.22;69.51;94117.34;5133499;27;20208;-79
2023/05/17 08:09:14;;;;;;;17.65;8.90;;;;;;;19.67;67.74;94116.50;5133968;27;20933;-80
2023/05/17 08:11:44;;;;;;;21.15;10.35;;;;;;;19.74;67.87;94110.94;5133961;27;20593;-79
2023/05/17 08:14:13;;;;;;;16.42;8.32;;;;;;;20.61;64.61;94107.38;5134311;27;20220;-78
2023/05/17 08:16:40;;;;;;;18.55;8.43;;;;;;;20.11;65.86;94113.13;5133496;27;20288;-78
2023/05/17 08:19:12;;;;;;;17.80;8.75;;;;;;;20.21;65.72;94100.53;5133952;27;20743;-78
2023/05/17 08:21:39;;;;;;;12.98;8.38;;;;;;;20.33;65.48;94097.31;5147727;27;20205;-78
2023/05/17 08:24:06;;;;;;;16.13;8.35;;;;;;;20.30;65.04;94108.34;5133411;27;20610;-79
2023/05/17 08:26:34;;;;;;;15.07;8.18;;;;;;;20.00;65.52;94111.63;5133676;27;20279;-79
2023/05/17 08:29:01;;;;;;;19.60;8.65;;;;;;;19.62;66.72;94108.66;5133673;27;20208;-79
2023/05/17 08:31:28;;;;;;;19.92;8.15;;;;;;;19.83;66.42;94103.06;5133865;27;20205;-78
2023/05/17 08:33:55;;;;;;;15.98;8.07;;;;;;;19.70;66.27;94093.69;5133129;27;20309;-79
2023/05/17 08:36:23;;;;;;;17.80;8.10;;;;;;;19.78;66.79;94100.75;5132910;27;20225;-79
2023/05/17 08:38:50;;;;;;;14.98;8.20;;;;;;;20.04;65.74;94091.19;5145583;27;20812;-76
2023/05/17 08:41:17;;;;;;;11.80;7.20;;;;;;;19.58;66.38;94107.88;5134439;27;20192;-77
2023/05/17 08:43:44;;;;;;;12.77;7.47;;;;;;;19.46;66.58;94113.75;5134082;27;20201;-81
2023/05/17 08:46:12;;;;;;;15.00;8.25;;;;;;;19.53;66.79;94108.28;5133747;27;20234;-77
2023/05/17 08:48:42;;;;;;;13.38;7.93;;;;;;;19.52;67.53;94110.25;5133574;27;20284;-77
2023/05/17 08:51:10;;;;;;;14.32;8.18;;;;;;;19.35;67.55;94110.25;5133579;27;20205;-76
2023/05/17 08:53:38;;;;;;;15.45;7.72;;;;;;;19.40;67.77;94107.13;5133416;27;20197;-79
2023/05/17 08:56:06;;;;;;;13.38;7.53;;;;;;;19.63;66.74;94104.72;5133137;27;20197;-79
2023/05/17 08:58:36;;;;;;;13.55;7.40;;;;;;;19.55;66.55;94097.66;5132986;27;20205;-79
2023/05/17 09:01:03;;;;;;;13.60;7.85;;;;;;;19.20;68.00;94098.50;5133078;27;20667;-82
2023/05/17 09:03:32;;;;;;;10.32;7.47;;;;;;;19.59;66.53;94087.44;5132957;27;20201;-76
2023/05/17 09:05:58;;;;;;;15.45;8.60;;;;;;;19.74;66.86;94105.44;5132827;27;20232;-77
2023/05/17 09:08:25;;;;;;;16.67;8.10;;;;;;;19.69;67.44;94108.59;5132746;27;20259;-79
2023/05/17 09:10:54;;;;;;;15.25;7.57;;;;;;;19.56;66.88;94098.44;5132900;27;20230;-77
2023/05/17 09:13:21;;;;;;;17.35;7.70;;;;;;;19.16;67.77;94086.75;5132589;27;20197;-78
2023/05/17 09:15:48;;;;;;;16.52;8.00;;;;;;;19.61;67.39;94093.34;5132207;27;20237;-80
2023/05/17 09:18:15;;;;;;;19.85;7.78;;;;;;;19.69;66.92;94092.13;5133332;27;20288;-79
2023/05/17 09:20:49;;;;;;;13.65;7.93;;;;;;;19.78;67.40;94078.75;5132808;27;20262;-79
2023/05/17 09:23:21;;;;;;;15.05;8.45;;;;;;;20.02;67.71;94081.78;5132964;27;20242;-80
2023/05/17 09:25:48;;;;;;;21.45;9.18;;;;;;;20.85;64.90;94078.09;5132660;27;20308;-79
2023/05/17 09:28:19;;;;;;;14.48;7.63;;;;;;;20.52;63.95;94088.56;5132803;27;20205;-78
2023/05/17 09:30:49;;;;;;;16.35;7.85;;;;;;;20.13;65.92;94094.28;5132642;27;20200;-78
2023/05/17 09:33:16;;;;;;;18.45;8.82;;;;;;;19.68;67.22;94090.53;5118899;27;20221;-78
2023/05/17 09:35:42;;;;;;;21.77;9.68;;;;;;;19.83;68.07;94092.06;5131852;27;20222;-78
2023/05/17 09:38:11;;;;;;;15.57;9.20;;;;;;;19.81;67.76;94080.69;5132148;27;20815;-79
2023/05/17 09:40:39;;;;;;;15.90;8.45;;;;;;;19.93;67.03;94090.47;5131664;27;20288;-79
2023/05/17 09:43:06;;;;;;;14.20;8.10;;;;;;;19.66;67.59;94092.94;5131688;27;20280;-77
2023/05/17 09:45:35;;;;;;;16.08;8.13;;;;;;;20.08;66.51;94096.69;5131311;27;20270;-76
2023/05/17 09:48:13;;;;;;;20.73;9.00;;;;;;;20.26;67.08;94097.34;5131794;27;20295;-77
2023/05/17 09:50:45;;;;;;;19.85;8.30;;;;;;;20.01;66.95;94099.44;5131867;27;20749;-78
2023/05/17 09:53:28;;;;;;;17.52;8.05;;;;;;;20.30;66.91;94103.63;5131487;27;20243;-78
2023/05/17 09:55:57;;;;;;;14.80;6.45;;;;;;;20.01;65.71;94108.47;5131684;27;20269;-78
2023/05/17 09:58:25;;;;;;;16.75;7.30;;;;;;;20.05;65.55;94102.97;5131567;27;20268;-77
2023/05/17 10:00:54;;;;;;;21.25;7.82;;;;;;;19.96;66.38;94105.34;5131319;27;20265;-78
2023/05/17 10:03:22;;;;;;;16.40;6.65;;;;;;;20.05;65.98;94083.72;5130847;27;20608;-78
2023/05/17 10:05:52;;;;;;;14.80;7.30;;;;;;;19.76;65.97;94103.09;5110965;28;20320;-80
2023/05/17 10:08:22;;;;;;;17.95;7.63;;;;;;;19.67;66.94;94089.00;5139696;27;20204;-78
2023/05/17 10:10:50;;;;;;;16.63;6.95;;;;;;;19.96;65.43;94077.84;5131297;27;20238;-85
2023/05/17 10:13:20;;;;;;;14.32;6.07;;;;;;;19.66;66.25;94079.19;5131202;27;20749;-81
2023/05/17 10:15:48;;;;;;;13.23;6.75;;;;;;;19.59;66.48;94081.94;5130603;27;20197;-79
2023/05/17 10:18:18;;;;;;;18.58;7.03;;;;;;;19.01;68.82;94075.00;5130667;27;20717;-77
2023/05/17 10:20:45;;;;;;;12.93;7.20;;;;;;;18.75;70.37;94067.19;5130858;27;20200;-79
2023/05/17 10:23:15;;;;;;;15.52;7.47;;;;;;;18.94;69.14;94057.78;5131278;27;20201;-79
2023/05/17 10:25:42;;;;;;;16.17;7.00;;;;;;;18.67;69.92;94065.63;5130724;27;20232;-80
2023/05/17 10:28:11;;;;;;;10.45;6.93;;;;;;;18.57;70.54;94049.94;5130782;27;20586;-78
2023/05/17 10:30:39;;;;;;;12.93;6.38;;;;;;;18.67;70.42;94044.47;5141921;27;20253;-79
2023/05/17 10:33:07;;;;;;;12.98;6.78;;;;;;;18.97;69.72;94024.84;5133113;27;20233;-78
2023/05/17 10:35:36;;;;;;;23.17;8.00;;;;;;;18.85;69.81;94022.50;5130717;27;20699;-80
2023/05/17 10:38:03;;;;;;;14.73;7.03;;;;;;;18.67;70.13;94016.25;5130322;27;20670;-80
2023/05/17 10:40:31;;;;;;;15.00;6.65;;;;;;;18.66;70.03;94009.19;5130722;27;20213;-78
2023/05/17 10:42:59;;;;;;;14.88;7.60;;;;;;;18.58;71.02;94007.63;5130744;27;20613;-79
2023/05/17 10:45:27;;;;;;;15.80;6.72;;;;;;;18.58;70.04;93980.19;5130935;27;20314;-78
2023/05/17 10:47:54;;;;;;;11.45;6.38;;;;;;;18.55;70.45;93976.25;5130713;27;20204;-79
2023/05/17 10:50:23;;;;;;;16.60;7.40;;;;;;;18.64;70.40;93976.66;5130249;27;20200;-78
2023/05/17 10:52:54;;;;;;;15.55;6.72;;;;;;;18.78;70.32;93959.38;5130582;27;20564;-80
2023/05/17 10:55:23;;;;;;;15.35;6.93;;;;;;;18.75;70.88;93958.22;5131819;27;20295;-78
2023/05/17 10:58:14;;;;;;;13.82;7.43;;;;;;;18.81;70.83;93942.13;5130750;27;20694;-78
2023/05/17 11:00:42;;;;;;;16.50;6.85;;;;;;;19.05;70.47;93938.53;5130291;27;20200;-80
2023/05/17 11:03:14;;;;;;;12.90;6.53;;;;;;;19.03;71.33;93935.38;5129678;27;20648;-80
2023/05/17 11:05:43;;;;;;;15.20;7.28;;;;;;;19.19;70.38;93940.44;5136503;27;20287;-78
2023/05/17 11:08:16;;;;;;;16.38;7.10;;;;;;;18.87;70.85;93942.50;5137651;27;20509;-78
2023/05/17 11:11:09;;;;;;;14.25;6.85;;;;;;;18.76;70.98;93942.53;5130212;28;20285;-80
2023/05/17 11:13:44;;;;;;;16.10;6.53;;;;;;;18.85;70.50;93956.63;5130490;28;20241;-80
2023/05/17 11:16:15;;;;;;;13.10;6.50;;;;;;;19.02;70.07;93961.28;5130340;28;20196;-79
2023/05/17 11:18:53;;;;;;;12.60;6.25;;;;;;;18.89;70.25;93979.34;5116810;28;20254;-80
2023/05/17 11:21:22;;;;;;;13.73;7.32;;;;;;;18.97;70.61;93985.63;5130487;28;20215;-79
2023/05/17 11:23:56;;;;;;;12.35;6.60;;;;;;;19.28;68.52;93983.94;5129807;28;20811;-78
2023/05/17 11:26:27;;;;;;;14.40;8.02;;;;;;;19.00;69.30;93990.28;5130342;28;20762;-80